Time;durP1;ratioP1;P1;durP2;ratioP2;P2;SDS_P1;SDS_P2;PMS_P1;PMS_P2;Temp;Humidity;BMP_temperature;BMP_pressure;BME280_temperature;BME280_humidity;BME280_pressure;Samples;Min_cycle;Max_cycle;Signal;HPM_P1;HPM_P2
2023/05/08 00:03:28;;;;;;;5.60;5.00;;;;;;;17.60;58.66;100658.38;10334127;28;20101;-64
2023/05/08 00:08:29;;;;;;;8.02;5.10;;;;;;;17.66;58.20;100662.13;10347516;28;20054;-64
2023/05/08 00:13:31;;;;;;;7.45;5.70;;;;;;;17.51;58.39;100656.94;10346787;28;20433;-64
2023/05/08 00:18:32;;;;;;;5.43;4.88;;;;;;;17.49;58.79;100663.66;10343805;28;20668;-64
2023/05/08 00:23:33;;;;;;;6.40;4.95;;;;;;;17.42;58.84;100660.97;10345508;28;20053;-64
2023/05/08 00:28:35;;;;;;;7.88;6.30;;;;;;;17.38;58.80;100665.16;10348126;28;20480;-64
2023/05/08 00:33:36;;;;;;;6.53;5.63;;;;;;;17.26;59.06;100659.53;10346512;28;20625;-64
2023/05/08 00:38:37;;;;;;;6.03;5.25;;;;;;;17.25;59.15;100663.28;10348212;28;20111;-64
2023/05/08 00:43:39;;;;;;;5.47;4.97;;;;;;;17.14;59.20;100661.22;10343663;28;22008;-64
2023/05/08 00:48:41;;;;;;;6.25;5.65;;;;;;;17.08;59.38;100657.50;10349839;28;20058;-64
2023/05/08 00:53:44;;;;;;;6.70;5.97;;;;;;;17.04;59.39;100659.78;10348726;28;20144;-64
2023/05/08 00:58:46;;;;;;;6.28;5.38;;;;;;;16.96;59.35;100668.16;10343805;28;20042;-65
2023/05/08 01:03:48;;;;;;;6.25;5.25;;;;;;;16.92;59.22;100658.72;10342851;28;20431;-64
2023/05/08 01:08:50;;;;;;;5.90;5.30;;;;;;;16.81;59.82;100670.22;10347049;28;20053;-65
2023/05/08 01:14:12;;;;;;;8.68;5.93;;;;;;;16.79;59.88;100661.44;10344466;28;20070;-64
2023/05/08 01:19:47;;;;;;;5.72;4.70;;;;;;;16.73;59.85;100667.72;10345526;28;20058;-64
2023/05/08 01:25:08;;;;;;;7.47;6.20;;;;;;;16.73;59.74;100676.69;10341508;28;20112;-64
2023/05/08 01:30:14;;;;;;;7.18;4.97;;;;;;;16.72;59.76;100676.88;10342406;28;20057;-64
2023/05/08 01:35:26;;;;;;;5.85;5.25;;;;;;;16.75;59.52;100682.75;10343051;28;20508;-64
2023/05/08 01:41:02;;;;;;;10.13;5.90;;;;;;;16.76;59.56;100687.13;10344380;28;20132;-64
2023/05/08 01:46:08;;;;;;;7.30;5.70;;;;;;;16.74;59.49;100689.19;10344484;28;20053;-65
2023/05/08 01:51:22;;;;;;;4.93;4.50;;;;;;;16.77;59.47;100699.66;10342174;28;20049;-64
2023/05/08 01:56:27;;;;;;;5.95;5.30;;;;;;;16.71;59.75;100692.34;10340140;28;20145;-65
2023/05/08 02:01:32;;;;;;;6.68;5.32;;;;;;;16.65;59.67;100694.00;10346357;28;20048;-64
2023/05/08 02:06:35;;;;;;;7.28;5.57;;;;;;;16.59;59.62;100694.84;10338977;28;20057;-65
2023/05/08 02:11:38;;;;;;;7.05;5.45;;;;;;;16.49;59.70;100704.41;10340538;28;20133;-64
2023/05/08 02:16:42;;;;;;;8.48;5.60;;;;;;;16.49;59.59;100702.56;10341358;28;20076;-65
2023/05/08 02:21:45;;;;;;;6.45;5.47;;;;;;;16.41;59.82;100706.31;10341346;28;20046;-64
2023/05/08 02:26:48;;;;;;;8.05;5.78;;;;;;;16.38;59.84;100706.69;10343889;28;20697;-64
2023/05/08 02:31:53;;;;;;;6.60;5.90;;;;;;;16.26;60.23;100706.47;10344481;28;20578;-64
2023/05/08 02:36:54;;;;;;;6.45;5.85;;;;;;;16.29;60.10;100716.09;10345156;28;20065;-64
2023/05/08 02:41:56;;;;;;;6.53;5.80;;;;;;;16.30;59.99;100720.47;10350228;28;20052;-64
2023/05/08 02:47:24;;;;;;;6.25;5.22;;;;;;;16.32;59.89;100728.41;10355540;28;20072;-65
2023/05/08 02:52:48;;;;;;;7.07;5.95;;;;;;;16.32;60.09;100731.13;10350578;28;20038;-64
2023/05/08 02:58:02;;;;;;;5.82;5.22;;;;;;;16.21;60.04;100736.09;10349584;28;20050;-65
2023/05/08 03:03:10;;;;;;;9.45;6.10;;;;;;;16.10;60.48;100735.84;10345854;28;20078;-64
2023/05/08 03:08:19;;;;;;;7.38;5.78;;;;;;;16.20;60.14;100730.88;10349363;28;20054;-64
2023/05/08 03:13:21;;;;;;;7.20;5.97;;;;;;;16.11;60.50;100732.06;10349524;28;20072;-64
2023/05/08 03:18:31;;;;;;;7.10;5.95;;;;;;;16.06;60.71;100725.38;10347167;28;20064;-65
2023/05/08 03:23:34;;;;;;;11.20;5.75;;;;;;;15.96;61.17;100730.38;10352479;28;20137;-65
2023/05/08 03:28:37;;;;;;;7.78;6.95;;;;;;;15.93;61.07;100727.22;10347649;28;20042;-64
2023/05/08 03:33:41;;;;;;;7.63;5.97;;;;;;;15.88;61.16;100733.25;10350985;28;20120;-64
2023/05/08 03:38:43;;;;;;;9.43;6.68;;;;;;;15.94;61.13;100728.91;10350460;28;20153;-64
2023/05/08 03:43:45;;;;;;;7.22;6.32;;;;;;;16.00;60.96;100736.22;10348325;28;20077;-63
2023/05/08 03:48:49;;;;;;;7.88;6.78;;;;;;;16.02;60.90;100734.16;10352114;28;20109;-69
2023/05/08 03:53:50;;;;;;;11.55;6.78;;;;;;;15.94;61.02;100737.03;10350962;28;20512;-68
2023/05/08 03:59:08;;;;;;;8.65;7.10;;;;;;;15.73;61.41;100738.78;10348288;28;20117;-69
2023/05/08 04:04:18;;;;;;;9.30;6.28;;;;;;;15.73;61.71;100741.50;10349176;28;20082;-68
2023/05/08 04:09:29;;;;;;;10.10;6.90;;;;;;;15.72;61.80;100744.38;10350138;28;20085;-70
2023/05/08 04:14:36;;;;;;;8.45;6.82;;;;;;;15.66;61.93;100755.00;10351871;28;20042;-69
2023/05/08 04:19:42;;;;;;;;;;;;;;;15.73;61.59;100754.22;10353178;28;20046;-70
2023/05/08 04:24:47;;;;;;;8.90;7.20;;;;;;;15.84;61.32;100754.50;10357127;28;19945;-68
2023/05/08 04:29:49;;;;;;;10.70;7.75;;;;;;;15.86;61.60;100755.13;10354251;28;20084;-69
2023/05/08 04:34:51;;;;;;;10.27;7.65;;;;;;;15.85;61.80;100745.31;10353102;28;20513;-70
2023/05/08 04:39:53;;;;;;;9.23;7.30;;;;;;;15.81;61.91;100752.19;10352202;28;20055;-67
2023/05/08 04:44:54;;;;;;;9.80;7.38;;;;;;;15.88;61.96;100752.22;10353320;28;20081;-69
2023/05/08 04:49:55;;;;;;;9.73;7.57;;;;;;;15.86;62.12;100759.72;10346188;28;20051;-69
2023/05/08 04:54:58;;;;;;;8.18;6.63;;;;;;;15.88;62.10;100765.78;10351753;28;20524;-68
2023/05/08 04:59:59;;;;;;;8.80;7.32;;;;;;;15.80;62.46;100772.19;10349043;28;20050;-68
2023/05/08 05:05:01;;;;;;;7.97;6.25;;;;;;;15.71;62.62;100778.78;10347498;28;20109;-69
2023/05/08 05:10:03;;;;;;;7.90;6.57;;;;;;;15.78;62.62;100778.88;10345047;28;20104;-69
2023/05/08 05:15:05;;;;;;;10.10;6.97;;;;;;;15.81;62.55;100784.72;10352909;28;20084;-69
2023/05/08 05:20:07;;;;;;;9.48;6.72;;;;;;;15.79;62.63;100786.78;10340529;28;20042;-68
2023/05/08 05:25:09;;;;;;;8.32;7.30;;;;;;;15.69;62.63;100797.13;10350257;28;20211;-69
2023/05/08 05:30:11;;;;;;;7.43;6.60;;;;;;;15.64;63.03;100794.19;10346156;28;20054;-68
2023/05/08 05:35:12;;;;;;;10.65;7.25;;;;;;;15.65;63.03;100802.09;10350410;28;20417;-67
2023/05/08 05:40:14;;;;;;;13.85;7.65;;;;;;;15.70;62.98;100798.81;10344573;28;20045;-67
2023/05/08 05:45:16;;;;;;;8.38;6.95;;;;;;;15.72;62.88;100802.16;10344313;28;20076;-69
2023/05/08 05:50:17;;;;;;;7.95;7.15;;;;;;;15.74;62.75;100812.81;10345944;28;20655;-69
2023/05/08 05:55:19;;;;;;;7.40;6.47;;;;;;;15.76;62.84;100810.75;10345191;28;20050;-69
2023/05/08 06:00:21;;;;;;;9.27;7.70;;;;;;;15.86;62.49;100820.19;10347392;28;20057;-68
2023/05/08 06:05:22;;;;;;;6.82;6.13;;;;;;;15.74;62.99;100816.38;10350385;28;20046;-70
2023/05/08 06:10:24;;;;;;;9.93;6.13;;;;;;;15.77;62.82;100815.97;10344071;28;20104;-69
2023/05/08 06:15:25;;;;;;;8.75;6.60;;;;;;;15.83;62.78;100823.28;10344443;28;20137;-69
2023/05/08 06:20:27;;;;;;;8.35;6.45;;;;;;;15.86;62.61;100830.22;10344475;28;20161;-69
2023/05/08 06:25:29;;;;;;;8.10;6.68;;;;;;;15.98;62.48;100833.22;10344363;28;20100;-67
2023/05/08 06:30:31;;;;;;;7.47;6.38;;;;;;;16.01;62.45;100836.34;10342449;28;20141;-68
2023/05/08 06:35:32;;;;;;;8.38;6.22;;;;;;;16.05;62.23;100837.63;10340667;28;20050;-68
2023/05/08 06:40:33;;;;;;;10.57;6.95;;;;;;;15.98;62.82;100844.88;10339490;28;20066;-69
2023/05/08 06:45:35;;;;;;;9.02;6.50;;;;;;;15.88;63.43;100843.56;10336938;28;20046;-68
2023/05/08 06:50:38;;;;;;;13.00;7.63;;;;;;;15.72;64.27;100840.09;10341568;28;20073;-69
2023/05/08 06:55:42;;;;;;;10.23;7.38;;;;;;;15.55;65.13;100844.13;10346194;28;20064;-67
2023/05/08 07:00:43;;;;;;;9.18;7.22;;;;;;;15.56;65.15;100846.66;10341503;28;20124;-68
2023/05/08 07:05:45;;;;;;;10.90;7.68;;;;;;;15.59;65.02;100848.13;10340289;28;20488;-68
2023/05/08 07:10:46;;;;;;;11.82;7.85;;;;;;;15.52;65.57;100842.66;10341965;28;20233;-67
2023/05/08 07:15:47;;;;;;;9.88;7.70;;;;;;;15.45;66.12;100844.47;10342253;28;20513;-67
2023/05/08 07:20:49;;;;;;;13.02;8.23;;;;;;;15.53;66.34;100841.63;10347195;28;20064;-68
2023/05/08 07:25:50;;;;;;;9.82;8.25;;;;;;;15.60;66.26;100842.53;10344933;28;20046;-69
2023/05/08 07:30:52;;;;;;;9.25;7.13;;;;;;;15.73;66.11;100844.50;10353663;28;20070;-69
2023/05/08 07:35:53;;;;;;;10.20;7.22;;;;;;;15.91;65.95;100852.13;10351489;28;20050;-70
2023/05/08 07:40:56;;;;;;;9.40;6.65;;;;;;;16.08;65.85;100849.13;10351983;28;20168;-70
2023/05/08 07:45:58;;;;;;;10.20;7.85;;;;;;;16.12;66.02;100844.97;10349600;28;20046;-70
2023/05/08 07:50:59;;;;;;;9.25;7.72;;;;;;;16.33;65.71;100858.44;10346425;28;20048;-71
2023/05/08 07:56:01;;;;;;;8.27;7.18;;;;;;;16.39;65.75;100849.47;10343829;28;20046;-69
2023/05/08 08:01:02;;;;;;;9.32;7.20;;;;;;;16.49;65.59;100851.81;10344229;28;20149;-71
2023/05/08 08:06:04;;;;;;;7.53;6.82;;;;;;;16.60;65.33;100848.50;10350203;28;20351;-71
2023/05/08 08:11:06;;;;;;;7.63;6.82;;;;;;;16.78;65.08;100850.66;10344451;28;20057;-69
2023/05/08 08:16:07;;;;;;;8.77;6.93;;;;;;;16.80;65.29;100854.00;10365154;28;20046;-68
2023/05/08 08:21:09;;;;;;;9.13;7.22;;;;;;;16.92;64.86;100851.56;10350389;28;20177;-69
2023/05/08 08:26:10;;;;;;;10.75;7.15;;;;;;;17.03;64.72;100844.69;10346820;28;20058;-70
2023/05/08 08:31:12;;;;;;;11.35;7.45;;;;;;;17.13;64.32;100847.84;10340832;28;20085;-70
2023/05/08 08:36:14;;;;;;;9.73;7.65;;;;;;;17.16;64.47;100844.72;10346048;28;20054;-71
2023/05/08 08:41:16;;;;;;;7.72;6.93;;;;;;;17.27;63.92;100845.97;10347280;28;20069;-71
2023/05/08 08:46:22;;;;;;;11.85;7.60;;;;;;;17.25;64.17;100839.91;10346301;28;20073;-71
2023/05/08 08:51:30;;;;;;;11.85;7.47;;;;;;;17.25;64.35;100861.66;10353485;28;20045;-69
2023/05/08 08:56:34;;;;;;;9.68;7.32;;;;;;;17.27;64.14;100856.00;10346712;28;20117;-68
2023/05/08 09:01:40;;;;;;;8.73;7.80;;;;;;;17.38;63.91;100860.84;10350640;28;20433;-71
2023/05/08 09:06:44;;;;;;;14.25;8.02;;;;;;;17.41;63.95;100860.41;10344174;28;20049;-70
2023/05/08 09:11:45;;;;;;;9.77;7.80;;;;;;;17.33;63.96;100864.16;10344055;28;20050;-71
2023/05/08 09:16:47;;;;;;;10.82;7.75;;;;;;;17.16;64.07;100869.16;10365535;28;20050;-72
2023/05/08 09:21:51;;;;;;;9.32;7.60;;;;;;;17.34;63.68;100868.56;10338152;28;20069;-72
2023/05/08 09:26:53;;;;;;;9.30;7.47;;;;;;;17.44;63.31;100868.16;10343034;28;20100;-71
2023/05/08 09:31:54;;;;;;;9.10;7.07;;;;;;;17.53;63.21;100864.16;10359592;28;20053;-70
2023/05/08 09:37:05;;;;;;;7.50;6.80;;;;;;;17.68;62.80;100872.13;10341840;28;20547;-72
2023/05/08 09:42:06;;;;;;;9.60;6.57;;;;;;;17.87;62.13;100875.91;10345584;28;20046;-71
2023/05/08 09:47:10;;;;;;;8.80;6.90;;;;;;;17.89;62.04;100881.97;10347821;28;20092;-69
2023/05/08 09:52:14;;;;;;;7.47;6.07;;;;;;;17.94;61.74;100882.16;10350830;28;20046;-70
2023/05/08 09:57:16;;;;;;;8.77;6.15;;;;;;;17.99;61.27;100892.38;10357575;28;20091;-70
2023/05/08 10:02:19;;;;;;;8.10;5.75;;;;;;;17.98;61.26;100899.72;10355196;28;20103;-69
2023/05/08 10:07:28;;;;;;;11.68;6.47;;;;;;;18.18;60.61;100890.69;10353743;28;20112;-68
2023/05/08 10:12:30;;;;;;;9.52;6.55;;;;;;;18.31;60.54;100895.28;10363220;28;20049;-70
2023/05/08 10:17:50;;;;;;;8.13;6.10;;;;;;;18.40;60.24;100885.81;10351745;28;20046;-71
2023/05/08 10:22:54;;;;;;;7.20;6.43;;;;;;;18.56;59.72;100879.03;10347607;28;20057;-71
2023/05/08 10:28:41;;;;;;;7.07;6.38;;;;;;;18.69;59.80;100876.28;10341348;28;20498;-67
2023/05/08 10:33:45;;;;;;;10.18;6.43;;;;;;;18.90;59.12;100866.97;10332734;28;20046;-70
2023/05/08 10:38:48;;;;;;;9.13;5.78;;;;;;;19.26;58.48;100878.28;10347182;28;20064;-75
2023/05/08 10:43:50;;;;;;;7.43;6.43;;;;;;;19.28;58.39;100876.19;10358144;28;20065;-73
2023/05/08 10:49:23;;;;;;;9.13;6.70;;;;;;;19.38;57.96;100877.34;10362853;28;20176;-72
2023/05/08 10:54:46;;;;;;;7.18;6.38;;;;;;;19.66;57.20;100867.88;10352962;28;20046;-72
2023/05/08 10:59:48;;;;;;;6.15;5.55;;;;;;;20.00;56.43;100866.56;10344748;28;20108;-71
2023/05/08 11:04:50;;;;;;;6.20;5.30;;;;;;;20.25;56.63;100854.72;10346673;28;20500;-71
2023/05/08 11:09:52;;;;;;;7.53;6.78;;;;;;;20.38;56.28;100853.75;10381957;28;20065;-70
2023/05/08 11:15:05;;;;;;;6.85;6.22;;;;;;;20.39;56.28;100852.69;10376749;28;20058;-73
2023/05/08 11:20:07;;;;;;;8.02;7.03;;;;;;;20.62;55.84;100848.41;10347431;28;20042;-70
2023/05/08 11:25:09;;;;;;;7.05;6.35;;;;;;;20.92;55.05;100845.72;10350699;28;20074;-72
2023/05/08 11:30:33;;;;;;;7.50;6.30;;;;;;;21.26;54.63;100851.50;10367773;28;20050;-72
2023/05/08 11:35:53;;;;;;;8.02;7.03;;;;;;;21.45;54.36;100846.81;10376787;28;20070;-69
2023/05/08 11:41:06;;;;;;;8.63;7.45;;;;;;;21.19;54.18;100846.97;10357954;28;20053;-73
2023/05/08 11:46:16;;;;;;;7.60;6.85;;;;;;;21.35;53.74;100850.09;10363990;28;20123;-70
2023/05/08 11:51:20;;;;;;;8.50;6.80;;;;;;;21.65;53.43;100851.97;10344281;28;20058;-71
2023/05/08 11:56:21;;;;;;;9.40;6.78;;;;;;;21.70;52.90;100857.53;10355057;28;20050;-74
2023/05/08 12:01:23;;;;;;;7.88;7.07;;;;;;;21.89;52.12;100845.41;10372024;28;20042;-71
2023/05/08 12:06:26;;;;;;;8.80;6.82;;;;;;;21.93;52.67;100848.50;10365420;28;20523;-74
2023/05/08 12:11:27;;;;;;;8.65;7.03;;;;;;;22.20;52.01;100846.09;10381059;28;20073;-73
2023/05/08 12:16:29;;;;;;;7.95;7.18;;;;;;;22.16;51.89;100840.25;10379077;28;20081;-71
2023/05/08 12:21:30;;;;;;;9.52;8.10;;;;;;;21.65;52.79;100849.22;10360352;28;20066;-72
2023/05/08 12:26:39;;;;;;;9.95;7.22;;;;;;;21.61;52.77;100848.84;10367122;28;20050;-75
2023/05/08 12:31:40;;;;;;;9.40;6.57;;;;;;;21.95;52.43;100843.59;10370355;28;20198;-69
2023/05/08 12:36:42;;;;;;;8.88;7.50;;;;;;;22.03;52.33;100836.94;10360467;28;20085;-73
2023/05/08 12:41:51;;;;;;;8.00;7.05;;;;;;;22.23;51.77;100831.88;10365900;28;20056;-72
2023/05/08 12:46:55;;;;;;;8.95;8.05;;;;;;;22.55;51.30;100835.06;10364999;28;20050;-73
2023/05/08 12:52:05;;;;;;;9.27;7.75;;;;;;;22.76;50.75;100830.78;10360460;28;20088;-74
2023/05/08 12:57:11;;;;;;;8.68;7.38;;;;;;;23.09;50.42;100822.91;10357859;28;20045;-74
2023/05/08 13:02:17;;;;;;;7.95;7.07;;;;;;;23.45;49.73;100823.50;10342410;28;20054;-74
2023/05/08 13:07:19;;;;;;;7.13;6.43;;;;;;;23.72;49.31;100816.25;10344818;28;20046;-73
2023/05/08 13:12:20;;;;;;;8.38;6.47;;;;;;;24.29;48.39;100820.63;10347621;28;20042;-73
2023/05/08 13:17:22;;;;;;;8.10;6.72;;;;;;;24.69;47.93;100815.88;10343458;28;20343;-73
2023/05/08 13:22:25;;;;;;;6.43;5.85;;;;;;;25.13;46.40;100807.47;10342363;28;20060;-74
2023/05/08 13:27:27;;;;;;;7.25;6.55;;;;;;;25.49;46.23;100799.53;10346131;28;20045;-71
2023/05/08 13:32:28;;;;;;;6.70;6.10;;;;;;;25.66;45.51;100791.94;10369194;28;20526;-74
2023/05/08 13:37:30;;;;;;;6.95;6.25;;;;;;;25.84;45.11;100793.41;10361878;28;20060;-74
2023/05/08 13:42:31;;;;;;;8.30;7.20;;;;;;;26.05;44.30;100794.41;10357819;28;20050;-71
2023/05/08 13:47:32;;;;;;;8.10;6.55;;;;;;;25.33;45.92;100790.34;10349645;28;20097;-67
2023/05/08 13:52:34;;;;;;;6.72;6.03;;;;;;;25.53;44.74;100782.25;10338728;28;20080;-69
2023/05/08 13:57:36;;;;;;;7.40;5.97;;;;;;;25.73;44.29;100776.03;10343921;28;20124;-68
2023/05/08 14:02:37;;;;;;;11.52;7.65;;;;;;;25.69;44.25;100772.16;10343094;28;20070;-67
2023/05/08 14:07:39;;;;;;;7.72;7.03;;;;;;;25.41;45.10;100767.00;10339681;28;20452;-67
2023/05/08 14:12:41;;;;;;;11.32;5.90;;;;;;;25.76;44.50;100771.91;10342603;28;20055;-67
2023/05/08 14:17:42;;;;;;;6.78;5.53;;;;;;;25.86;44.17;100765.63;10339873;28;20950;-68
2023/05/08 14:22:44;;;;;;;7.85;6.28;;;;;;;25.83;43.97;100760.63;10336861;28;20051;-67
2023/05/08 14:27:45;;;;;;;7.57;5.72;;;;;;;25.99;43.48;100756.91;10341927;28;20054;-66
2023/05/08 14:32:47;;;;;;;6.60;6.00;;;;;;;25.59;44.54;100755.53;10339630;28;20054;-71
2023/05/08 14:37:48;;;;;;;9.43;6.00;;;;;;;25.67;44.27;100762.47;10348960;28;20066;-69
2023/05/08 14:42:50;;;;;;;5.82;5.30;;;;;;;25.77;43.75;100757.03;10353998;28;20058;-67
2023/05/08 14:47:51;;;;;;;7.15;6.18;;;;;;;25.44;44.00;100759.03;10347514;28;20061;-68
2023/05/08 14:52:53;;;;;;;7.10;6.47;;;;;;;25.21;44.15;100745.63;10342360;28;20042;-69
2023/05/08 14:57:55;;;;;;;7.65;6.88;;;;;;;24.54;45.04;100742.31;10348980;28;20051;-67
2023/05/08 15:02:56;;;;;;;9.07;6.03;;;;;;;24.53;45.17;100735.97;10344922;28;20077;-67
2023/05/08 15:07:58;;;;;;;6.82;6.22;;;;;;;24.67;45.53;100727.31;10345431;28;20120;-68
2023/05/08 15:12:59;;;;;;;9.52;6.95;;;;;;;24.31;45.90;100722.25;10347243;28;20136;-67
2023/05/08 15:18:01;;;;;;;6.32;5.72;;;;;;;23.97;47.49;100720.75;10343664;28;20057;-67
2023/05/08 15:23:03;;;;;;;7.20;6.00;;;;;;;24.45;45.65;100717.19;10344420;28;20050;-66
2023/05/08 15:28:04;;;;;;;5.20;4.70;;;;;;;24.87;45.46;100718.41;10347517;28;20052;-68
2023/05/08 15:33:06;;;;;;;6.20;5.63;;;;;;;25.08;44.76;100723.00;10355787;28;20050;-70
2023/05/08 15:38:08;;;;;;;6.18;5.53;;;;;;;24.94;44.52;100722.63;10348639;28;20053;-68
2023/05/08 15:43:09;;;;;;;6.85;6.07;;;;;;;24.99;44.08;100715.50;10348159;28;20074;-68
2023/05/08 15:48:11;;;;;;;7.03;5.13;;;;;;;24.92;44.49;100722.03;10348880;28;20077;-69
2023/05/08 15:53:12;;;;;;;5.20;4.70;;;;;;;24.94;44.10;100727.25;10345889;28;20046;-66
2023/05/08 15:58:14;;;;;;;4.55;4.10;;;;;;;24.52;44.99;100734.31;10348324;28;20259;-67
2023/05/08 16:03:16;;;;;;;4.68;4.28;;;;;;;24.64;45.04;100727.81;10344772;28;20057;-68
2023/05/08 16:08:18;;;;;;;6.90;4.38;;;;;;;24.57;44.96;100725.31;10345695;28;20045;-67
2023/05/08 16:13:19;;;;;;;6.45;4.40;;;;;;;24.50;45.34;100735.63;10351603;28;20058;-67
2023/05/08 16:18:21;;;;;;;4.72;3.85;;;;;;;24.64;45.28;100739.66;10352080;28;20543;-72
2023/05/08 16:23:23;;;;;;;4.65;3.60;;;;;;;24.73;44.79;100738.09;10345714;28;20097;-67
2023/05/08 16:28:24;;;;;;;4.22;3.92;;;;;;;24.59;45.10;100736.06;10351211;28;20116;-67
2023/05/08 16:33:26;;;;;;;5.15;4.03;;;;;;;24.44;45.90;100733.94;10345137;28;20084;-69
2023/05/08 16:38:27;;;;;;;7.15;4.90;;;;;;;24.22;46.34;100736.72;10350074;28;20315;-68
2023/05/08 16:43:29;;;;;;;9.77;6.35;;;;;;;24.18;46.69;100730.09;10343292;28;20113;-68
2023/05/08 16:48:30;;;;;;;5.40;4.90;;;;;;;23.94;46.85;100733.91;10345986;28;20049;-67
2023/05/08 16:53:32;;;;;;;5.75;4.88;;;;;;;23.86;47.56;100731.63;10340740;28;20046;-64
2023/05/08 16:58:33;;;;;;;5.75;4.80;;;;;;;23.83;47.69;100726.63;10341731;28;20065;-67
2023/05/08 17:03:35;;;;;;;7.72;5.00;;;;;;;23.77;47.62;100724.88;10321844;28;20058;-66
2023/05/08 17:08:36;;;;;;;4.85;4.28;;;;;;;23.73;47.96;100723.72;10356530;28;20057;-69
2023/05/08 17:13:38;;;;;;;6.68;4.78;;;;;;;23.75;48.04;100727.88;10342434;28;20050;-68
2023/05/08 17:18:39;;;;;;;6.38;4.75;;;;;;;23.75;47.78;100713.31;10337434;28;20109;-66
2023/05/08 17:23:40;;;;;;;5.65;4.72;;;;;;;23.62;47.68;100720.03;10340525;28;20096;-68
2023/05/08 17:28:42;;;;;;;8.68;4.80;;;;;;;23.38;48.19;100721.31;10354753;28;20057;-68
2023/05/08 17:33:43;;;;;;;7.05;4.50;;;;;;;23.37;48.48;100715.00;10326751;28;20477;-67
2023/05/08 17:38:46;;;;;;;7.93;4.80;;;;;;;23.28;48.65;100720.09;10345958;28;20547;-68
2023/05/08 17:43:47;;;;;;;6.32;5.72;;;;;;;23.25;48.56;100714.28;10338270;28;20553;-61
2023/05/08 17:48:48;;;;;;;6.15;5.35;;;;;;;23.01;48.98;100719.09;10349989;28;20136;-61
2023/05/08 17:53:51;;;;;;;7.35;5.80;;;;;;;22.78;49.18;100729.94;10340421;28;20050;-65
2023/05/08 17:58:54;;;;;;;8.13;6.32;;;;;;;22.62;49.48;100725.28;10347055;28;20085;-67
2023/05/08 18:03:55;;;;;;;8.40;6.25;;;;;;;22.30;49.75;100734.03;10345226;28;20034;-67
2023/05/08 18:08:57;;;;;;;7.75;6.10;;;;;;;22.23;50.33;100735.22;10344950;28;20065;-67
2023/05/08 18:13:58;;;;;;;9.30;6.60;;;;;;;22.11;50.52;100729.78;10343280;28;20070;-66
2023/05/08 18:18:59;;;;;;;8.57;6.07;;;;;;;21.98;50.66;100737.19;10341277;28;20151;-66
2023/05/08 18:24:01;;;;;;;9.15;7.05;;;;;;;21.82;51.00;100731.63;10351386;28;20108;-65
2023/05/08 18:29:02;;;;;;;8.45;7.22;;;;;;;21.73;51.19;100733.91;10342244;28;20049;-64
2023/05/08 18:34:04;;;;;;;8.93;7.07;;;;;;;21.56;51.65;100736.56;10343202;28;20073;-68
2023/05/08 18:39:05;;;;;;;7.53;6.78;;;;;;;21.50;52.01;100746.53;10342389;28;20050;-65
2023/05/08 18:44:08;;;;;;;9.27;7.32;;;;;;;21.41;52.17;100747.13;10340481;28;20069;-65
2023/05/08 18:49:09;;;;;;;7.82;7.03;;;;;;;21.32;52.64;100747.47;10344859;28;20054;-62
2023/05/08 18:54:10;;;;;;;9.52;7.95;;;;;;;21.20;53.02;100752.09;10344231;28;20046;-63
2023/05/08 18:59:12;;;;;;;12.43;7.55;;;;;;;21.04;53.55;100752.81;10343226;28;20050;-63
2023/05/08 19:04:14;;;;;;;8.40;7.50;;;;;;;20.81;54.09;100754.41;10341360;28;20074;-63
2023/05/08 19:09:15;;;;;;;10.07;7.53;;;;;;;20.79;54.00;100762.88;10340991;28;20104;-64
2023/05/08 19:14:16;;;;;;;9.73;7.72;;;;;;;20.78;54.30;100761.19;10344300;28;20137;-64
2023/05/08 19:19:18;;;;;;;9.50;7.20;;;;;;;20.76;53.89;100757.03;10336696;28;20131;-64
2023/05/08 19:24:22;;;;;;;9.90;7.90;;;;;;;20.66;54.42;100759.50;10344104;28;20061;-61
2023/05/08 19:29:24;;;;;;;7.95;6.72;;;;;;;20.66;54.44;100756.78;10341568;28;20137;-64
2023/05/08 19:34:25;;;;;;;9.60;8.18;;;;;;;20.62;54.67;100756.41;10340913;28;20065;-63
2023/05/08 19:39:27;;;;;;;11.52;8.32;;;;;;;20.58;54.66;100752.44;10346617;28;20051;-64
2023/05/08 19:44:30;;;;;;;10.68;8.13;;;;;;;20.56;54.82;100751.84;10345769;28;20124;-64
2023/05/08 19:49:31;;;;;;;9.20;7.53;;;;;;;20.45;54.46;100747.97;10345625;28;20157;-64
2023/05/08 19:54:33;;;;;;;10.57;7.80;;;;;;;20.41;55.07;100750.34;10346645;28;20125;-64
2023/05/08 19:59:34;;;;;;;9.93;7.85;;;;;;;20.42;55.25;100748.47;10346868;28;20175;-63
2023/05/08 20:04:35;;;;;;;10.73;8.05;;;;;;;20.37;55.04;100740.13;10344910;28;20497;-64
2023/05/08 20:09:57;;;;;;;8.93;7.20;;;;;;;20.20;55.37;100743.50;10346943;28;20064;-64
2023/05/08 20:14:58;;;;;;;11.20;8.77;;;;;;;20.10;55.79;100732.28;10345320;28;20136;-63
2023/05/08 20:20:00;;;;;;;10.48;8.77;;;;;;;20.01;55.95;100739.13;10347805;28;20057;-64
2023/05/08 20:25:01;;;;;;;11.68;8.57;;;;;;;19.91;56.12;100741.56;10349587;28;20049;-62
2023/05/08 20:30:05;;;;;;;12.65;9.00;;;;;;;19.77;55.98;100744.44;10352847;28;20139;-62
2023/05/08 20:35:07;;;;;;;10.15;8.27;;;;;;;19.70;56.48;100748.25;10349976;28;20579;-67
2023/05/08 20:40:09;;;;;;;13.75;9.60;;;;;;;19.60;56.79;100749.59;10347782;28;20125;-66
2023/05/08 20:45:11;;;;;;;12.27;9.52;;;;;;;19.53;56.88;100743.41;10347620;28;20056;-68
2023/05/08 20:50:14;;;;;;;13.30;9.43;;;;;;;19.45;57.33;100735.53;10347514;28;20065;-67
2023/05/08 20:55:16;;;;;;;12.65;9.02;;;;;;;19.37;57.86;100743.97;10349201;28;20452;-64
2023/05/08 21:00:18;;;;;;;10.65;9.38;;;;;;;19.28;57.95;100735.25;10347732;28;20449;-65
2023/05/08 21:05:19;;;;;;;11.25;8.43;;;;;;;19.22;58.28;100733.44;10347790;28;20112;-65
2023/05/08 21:10:21;;;;;;;11.82;8.20;;;;;;;19.19;58.65;100734.72;10347379;28;20109;-65
2023/05/08 21:15:22;;;;;;;9.80;8.80;;;;;;;19.13;58.83;100723.88;10346099;28;20050;-67
2023/05/08 21:20:24;;;;;;;11.50;8.80;;;;;;;19.01;58.99;100723.75;10342436;28;20073;-65
2023/05/08 21:25:25;;;;;;;13.30;8.82;;;;;;;18.94;59.34;100715.66;10341462;28;20053;-65
2023/05/08 21:30:27;;;;;;;14.48;9.93;;;;;;;18.89;59.62;100714.66;10347997;28;20117;-66
2023/05/08 21:35:29;;;;;;;12.80;10.27;;;;;;;18.59;60.15;100720.69;10348290;28;20053;-67
2023/05/08 21:40:30;;;;;;;14.23;10.45;;;;;;;18.52;60.41;100720.75;10345399;28;20084;-66
2023/05/08 21:45:32;;;;;;;15.45;11.98;;;;;;;18.57;60.41;100720.91;10344460;28;20077;-65
2023/05/08 21:50:33;;;;;;;15.45;11.80;;;;;;;18.48;60.66;100715.94;10346923;28;20041;-67
2023/05/08 21:55:34;;;;;;;17.85;10.95;;;;;;;18.42;60.83;100715.78;10346280;28;20120;-66
2023/05/08 22:00:36;;;;;;;22.98;11.38;;;;;;;18.46;60.66;100708.00;10339390;28;20084;-64
2023/05/08 22:05:37;;;;;;;16.50;12.20;;;;;;;18.50;60.81;100697.50;10349129;28;20437;-66
2023/05/08 22:10:39;;;;;;;17.42;11.05;;;;;;;18.45;60.79;100702.78;10343797;28;20058;-64
2023/05/08 22:15:41;;;;;;;19.25;12.35;;;;;;;18.39;60.83;100689.00;10346123;28;20145;-65
2023/05/08 22:20:42;;;;;;;17.25;11.27;;;;;;;18.35;61.06;100686.94;10342063;28;20085;-66
2023/05/08 22:25:44;;;;;;;14.77;10.70;;;;;;;18.34;61.06;100679.81;10341574;28;20046;-66
2023/05/08 22:30:45;;;;;;;16.42;10.82;;;;;;;18.23;61.40;100675.91;10341794;28;20458;-64
2023/05/08 22:35:46;;;;;;;16.83;11.90;;;;;;;18.15;61.56;100674.28;10341820;28;20085;-64
2023/05/08 22:40:48;;;;;;;18.25;12.30;;;;;;;18.04;61.86;100667.63;10342555;28;20141;-65
2023/05/08 22:45:49;;;;;;;14.18;10.70;;;;;;;17.93;62.06;100667.47;10340223;28;20132;-63
2023/05/08 22:50:51;;;;;;;13.05;9.93;;;;;;;17.85;62.36;100654.97;10346245;28;20050;-66
2023/05/08 22:55:52;;;;;;;15.38;12.15;;;;;;;17.73;62.70;100646.63;10345758;28;20104;-65
2023/05/08 23:00:54;;;;;;;14.90;12.10;;;;;;;17.61;63.20;100656.50;10354940;28;20049;-65
2023/05/08 23:05:56;;;;;;;15.98;10.95;;;;;;;17.73;63.27;100645.78;10322204;28;20050;-65
2023/05/08 23:10:57;;;;;;;12.85;10.25;;;;;;;17.81;62.87;100637.38;10314190;28;20588;-67